Terminal Aerodrome Forecast
Issued by NWS

Home | Current Version | Previous Version | Text Only | Print | Product List | Glossary On
Versions: 1 2 3 4 5 6 7 8 9 10 11 12 13 14 15
000
FTUS41 KCAR 280500
TAFHUL
TAF
KHUL 280533Z 2806/2906 17007KT 6SM BR OVC005
      TEMPO 2806/2810 3SM BR BKN004
     FM281100 16005KT 6SM BR OVC008
     FM281500 15007KT P6SM OVC012
     FM281800 14009KT 5SM -SHRA OVC015
     FM290000 13011KT 5SM -SHRA BR OVC015
     FM290200 14011KT 3SM -SHRA BR SCT008 OVC012=

USA.gov is the U.S. government's official web portal to all federal, state and local government web resources and services.